Accueil
METAR-TAF:

METAR-TAF

Aéroports :

Aéroport international de Norwich

Norwich, Angleterre

latitude: 52-38N, longitude: 001-18E, altitude: 14 m

Observation

Le bulletin a été fait il y a 11 minutes, à 18:50 UTC
Vent 9 kt de sud-est
Température 17°C
Humidité 63%
Pression 1019 hPa
Visibilité 10 km ou plus

METAR: EGSH 151850Z AUTO 13009KT 9999 NCD 17/10 Q1019

Heure: 20:01 (19:01 UTC)

Prévision

Le bulletin a été fait il y a 2 heures et 7 minutes, à 16:54 UTC
Prévision valable du 15 à 18 UTC au 16 à 03 UTC
Vent 11 kt de est/sud-est
Visibilité 10 km ou plus
Quelques nuages à une hauteur de 4500 ft
Evoluant progressivement
du 15 à 22 UTC au 16 à 01 UTC
Vent 4 kt de sud

TAF: EGSH 151654Z 1518/1603 11011KT 9999 FEW045 BECMG 1522/1601 17004KT

Observations et prévisions météorologiques de plus de 4000 aéroports (messages METAR et TAF).

Les stations disponibles sont représentées par des disques jaunes et rouges sur la carte.

Passer la souris dessus pour voir le nom de la station.

Cliquer dessus pour voir les observations et prévisions météorologiques.

Pour changer de carte: cliquez sur les boutons verts avec une croix noire pour zoomer, sur le bouton vert avec un tiret pour effectuer un zoom arrière, ou sur les flèches vertes pour les cartes adjacentes.


METAR-TAF: